Aeroporto :
LOGIN :

Iscrizione | Disclaimer

   EN    FR    IT 

 










Sommario :    VFR   VFR Marginale   IFR   IFR Intensivo   IFR Molto Intensivo
Visibilità : 
Base nubi : 
>= 8 km
>= 3000ft
5 / 8 km
1000 / 3000 ft
1500m / 5 km
500 / 1000 ft
800 / 1500m
200 / 500 ft
< 800m
< 200 ft
Simboli :   Temporali  Nebbia  Neve Forte  Precipitazioni Forti  Vento > 20 kt
SIGMETs :   Varie  Temporali  Ghiacco  Turbolenza  Onda orograficha  Ceneri Vulcaniche







- Altitudine del aeroporto : 16 ft
- Codice IATA : EAS


LESO - San Sebastian Fuenterrabia

ULTIMO METAR :
  • 161300Z 15009KT 110V180 CAVOK 21/M01 Q1024

METARs OBSOLETI :
  • 161230Z 18013KT CAVOK 20/M02 Q1025
  • 161200Z 14007G17KT 080V190 CAVOK 20/00 Q1025
  • 161130Z 11010KT 070V160 CAVOK 19/02 Q1025
  • 161100Z 13012KT CAVOK 19/00 Q1026
  • 161030Z 12011KT CAVOK 18/01 Q1026

TAF TAF LESO
Valido dal 16 a 12 ore il 17 a 12 ore UTC


161100Z 1612/1712 16007KT CAVOK TX20/1615Z TN11/1706Z
PROB40
TEMPO 1621/1712 16015G25KT
Nessun NOTAM noto per questo aeroporto.



MetMap, La meteo Aeronautica in un colpo d'occhio ! - Copyright ORBIFLY Dicembre 2007 - Disclaimer

ORBIFLY MET'MAP TEAM :

Programmazione e sviluppo : Alexandra Zaïnal
Concezione e sviluppo : Baudouin d'Aumeries
Co-Programmazione e sviluppo : Marc-Olivier Méhu
Supporto tecnico e logistico : Manuel Goepfert
Aiuto per la traduzione : Arnaldo La Scala

Contatto : metmap@orbifly.com




FONTI E CREDITI :

   NOAA